sensor_id;sensor_type;location;lat;lon;timestamp;temperature;humidity
4103;DHT22;2065;49.790;9.620;2022-11-15T00:02:20;12.50;60.60
4103;DHT22;2065;49.790;9.620;2022-11-15T00:05:06;12.50;60.50
4103;DHT22;2065;49.790;9.620;2022-11-15T00:07:53;12.60;60.50
4103;DHT22;2065;49.790;9.620;2022-11-15T00:10:42;12.60;60.50
4103;DHT22;2065;49.790;9.620;2022-11-15T00:13:29;12.50;60.30
4103;DHT22;2065;49.790;9.620;2022-11-15T00:16:15;12.50;60.20
4103;DHT22;2065;49.790;9.620;2022-11-15T00:19:02;12.40;61.30
4103;DHT22;2065;49.790;9.620;2022-11-15T00:21:47;12.40;61.30
4103;DHT22;2065;49.790;9.620;2022-11-15T00:24:35;12.40;60.80
4103;DHT22;2065;49.790;9.620;2022-11-15T00:27:22;12.50;60.50
4103;DHT22;2065;49.790;9.620;2022-11-15T00:30:08;12.50;60.20
4103;DHT22;2065;49.790;9.620;2022-11-15T00:32:54;12.50;60.10
4103;DHT22;2065;49.790;9.620;2022-11-15T00:35:40;12.40;60.30
4103;DHT22;2065;49.790;9.620;2022-11-15T00:38:29;12.40;60.00
4103;DHT22;2065;49.790;9.620;2022-11-15T00:41:15;12.30;60.80
4103;DHT22;2065;49.790;9.620;2022-11-15T00:44:02;12.40;60.90
4103;DHT22;2065;49.790;9.620;2022-11-15T00:46:48;12.40;60.60
4103;DHT22;2065;49.790;9.620;2022-11-15T00:49:34;12.40;61.10
4103;DHT22;2065;49.790;9.620;2022-11-15T00:52:19;12.30;60.70
4103;DHT22;2065;49.790;9.620;2022-11-15T00:55:05;12.40;60.70
4103;DHT22;2065;49.790;9.620;2022-11-15T00:57:51;12.40;60.10
4103;DHT22;2065;49.790;9.620;2022-11-15T01:00:38;12.40;59.70
4103;DHT22;2065;49.790;9.620;2022-11-15T01:03:24;12.20;59.80
4103;DHT22;2065;49.790;9.620;2022-11-15T01:06:11;12.10;60.50
4103;DHT22;2065;49.790;9.620;2022-11-15T01:08:57;12.20;61.10
4103;DHT22;2065;49.790;9.620;2022-11-15T01:11:45;12.20;60.70
4103;DHT22;2065;49.790;9.620;2022-11-15T01:14:31;12.00;61.30
4103;DHT22;2065;49.790;9.620;2022-11-15T01:17:17;12.10;61.50
4103;DHT22;2065;49.790;9.620;2022-11-15T01:20:04;12.10;60.70
4103;DHT22;2065;49.790;9.620;2022-11-15T01:22:50;12.20;60.30
4103;DHT22;2065;49.790;9.620;2022-11-15T01:25:36;12.20;60.20
4103;DHT22;2065;49.790;9.620;2022-11-15T01:28:22;12.20;60.00
4103;DHT22;2065;49.790;9.620;2022-11-15T01:31:12;12.10;60.00
4103;DHT22;2065;49.790;9.620;2022-11-15T01:34:00;12.00;60.50
4103;DHT22;2065;49.790;9.620;2022-11-15T01:36:47;11.80;61.90
4103;DHT22;2065;49.790;9.620;2022-11-15T01:39:33;11.30;63.90
4103;DHT22;2065;49.790;9.620;2022-11-15T01:42:21;11.60;63.30
4103;DHT22;2065;49.790;9.620;2022-11-15T01:45:12;11.80;62.70
4103;DHT22;2065;49.790;9.620;2022-11-15T01:47:59;11.90;62.20
4103;DHT22;2065;49.790;9.620;2022-11-15T01:50:47;12.00;61.50
4103;DHT22;2065;49.790;9.620;2022-11-15T01:53:34;12.00;61.00
4103;DHT22;2065;49.790;9.620;2022-11-15T01:56:25;12.00;61.70
4103;DHT22;2065;49.790;9.620;2022-11-15T01:59:13;12.00;61.60
4103;DHT22;2065;49.790;9.620;2022-11-15T02:02:00;12.00;61.90
4103;DHT22;2065;49.790;9.620;2022-11-15T02:04:47;12.10;61.70
4103;DHT22;2065;49.790;9.620;2022-11-15T02:07:35;11.80;62.30
4103;DHT22;2065;49.790;9.620;2022-11-15T02:10:23;11.70;62.80
4103;DHT22;2065;49.790;9.620;2022-11-15T02:13:09;11.80;62.80
4103;DHT22;2065;49.790;9.620;2022-11-15T02:16:02;11.80;62.60
4103;DHT22;2065;49.790;9.620;2022-11-15T02:18:53;12.00;61.80
4103;DHT22;2065;49.790;9.620;2022-11-15T02:21:45;12.00;61.40
4103;DHT22;2065;49.790;9.620;2022-11-15T02:24:50;12.00;61.70
4103;DHT22;2065;49.790;9.620;2022-11-15T02:31:00;12.10;60.70
4103;DHT22;2065;49.790;9.620;2022-11-15T02:33:54;12.10;60.50
4103;DHT22;2065;49.790;9.620;2022-11-15T02:36:53;12.10;60.10
4103;DHT22;2065;49.790;9.620;2022-11-15T02:39:49;12.10;59.80
4103;DHT22;2065;49.790;9.620;2022-11-15T02:42:39;12.00;59.70
4103;DHT22;2065;49.790;9.620;2022-11-15T02:45:50;11.70;61.70
4103;DHT22;2065;49.790;9.620;2022-11-15T02:48:40;11.70;60.90
4103;DHT22;2065;49.790;9.620;2022-11-15T02:51:28;11.80;60.50
4103;DHT22;2065;49.790;9.620;2022-11-15T02:54:20;11.90;60.20
4103;DHT22;2065;49.790;9.620;2022-11-15T02:57:15;11.90;59.80
4103;DHT22;2065;49.790;9.620;2022-11-15T03:00:08;11.80;59.60
4103;DHT22;2065;49.790;9.620;2022-11-15T03:03:13;11.40;61.10
4103;DHT22;2065;49.790;9.620;2022-11-15T03:06:10;11.60;61.00
4103;DHT22;2065;49.790;9.620;2022-11-15T03:09:04;11.50;59.80
4103;DHT22;2065;49.790;9.620;2022-11-15T03:12:04;11.10;61.80
4103;DHT22;2065;49.790;9.620;2022-11-15T03:14:54;11.10;62.60
4103;DHT22;2065;49.790;9.620;2022-11-15T03:17:45;11.20;61.30
4103;DHT22;2065;49.790;9.620;2022-11-15T03:20:33;11.30;60.50
4103;DHT22;2065;49.790;9.620;2022-11-15T03:23:28;11.30;60.20
4103;DHT22;2065;49.790;9.620;2022-11-15T03:26:23;11.00;61.30
4103;DHT22;2065;49.790;9.620;2022-11-15T03:29:15;10.90;61.30
4103;DHT22;2065;49.790;9.620;2022-11-15T03:32:05;11.00;61.40
4103;DHT22;2065;49.790;9.620;2022-11-15T03:34:58;11.10;61.60
4103;DHT22;2065;49.790;9.620;2022-11-15T03:37:51;11.20;61.70
4103;DHT22;2065;49.790;9.620;2022-11-15T03:40:42;11.20;61.30
4103;DHT22;2065;49.790;9.620;2022-11-15T03:43:34;11.30;60.90
4103;DHT22;2065;49.790;9.620;2022-11-15T03:46:28;11.40;60.90
4103;DHT22;2065;49.790;9.620;2022-11-15T03:49:22;11.40;60.30
4103;DHT22;2065;49.790;9.620;2022-11-15T03:52:12;11.50;60.90
4103;DHT22;2065;49.790;9.620;2022-11-15T03:55:06;11.50;61.00
4103;DHT22;2065;49.790;9.620;2022-11-15T03:57:56;11.60;60.40
4103;DHT22;2065;49.790;9.620;2022-11-15T04:00:43;11.70;60.00
4103;DHT22;2065;49.790;9.620;2022-11-15T04:03:28;11.70;59.70
4103;DHT22;2065;49.790;9.620;2022-11-15T04:06:14;11.70;59.50
4103;DHT22;2065;49.790;9.620;2022-11-15T04:09:00;11.70;59.40
4103;DHT22;2065;49.790;9.620;2022-11-15T04:11:45;11.70;59.30
4103;DHT22;2065;49.790;9.620;2022-11-15T04:14:32;11.70;59.20
4103;DHT22;2065;49.790;9.620;2022-11-15T04:17:18;11.60;59.20
4103;DHT22;2065;49.790;9.620;2022-11-15T04:20:05;11.60;59.40
4103;DHT22;2065;49.790;9.620;2022-11-15T04:23:10;11.60;59.50
4103;DHT22;2065;49.790;9.620;2022-11-15T04:26:16;11.60;60.40
4103;DHT22;2065;49.790;9.620;2022-11-15T04:29:02;11.50;60.20
4103;DHT22;2065;49.790;9.620;2022-11-15T04:32:07;10.80;63.50
4103;DHT22;2065;49.790;9.620;2022-11-15T04:34:52;10.80;63.50
4103;DHT22;2065;49.790;9.620;2022-11-15T04:37:38;11.00;62.50
4103;DHT22;2065;49.790;9.620;2022-11-15T04:40:24;11.00;62.40
4103;DHT22;2065;49.790;9.620;2022-11-15T04:43:09;11.10;62.60
4103;DHT22;2065;49.790;9.620;2022-11-15T04:45:55;11.00;61.90
4103;DHT22;2065;49.790;9.620;2022-11-15T04:48:42;10.90;62.40
4103;DHT22;2065;49.790;9.620;2022-11-15T04:51:27;10.70;62.80
4103;DHT22;2065;49.790;9.620;2022-11-15T04:54:13;10.30;64.10
4103;DHT22;2065;49.790;9.620;2022-11-15T04:56:58;10.50;63.90
4103;DHT22;2065;49.790;9.620;2022-11-15T04:59:44;10.50;62.90
4103;DHT22;2065;49.790;9.620;2022-11-15T05:02:30;10.40;62.60
4103;DHT22;2065;49.790;9.620;2022-11-15T05:05:37;10.40;63.10
4103;DHT22;2065;49.790;9.620;2022-11-15T05:08:22;10.50;62.30
4103;DHT22;2065;49.790;9.620;2022-11-15T05:11:07;10.40;62.20
4103;DHT22;2065;49.790;9.620;2022-11-15T05:13:53;10.20;63.40
4103;DHT22;2065;49.790;9.620;2022-11-15T05:16:39;10.40;63.20
4103;DHT22;2065;49.790;9.620;2022-11-15T05:19:24;10.70;61.70
4103;DHT22;2065;49.790;9.620;2022-11-15T05:22:11;10.80;60.90
4103;DHT22;2065;49.790;9.620;2022-11-15T05:24:57;10.90;61.10
4103;DHT22;2065;49.790;9.620;2022-11-15T05:27:46;11.00;59.80
4103;DHT22;2065;49.790;9.620;2022-11-15T05:30:32;10.90;60.50
4103;DHT22;2065;49.790;9.620;2022-11-15T05:33:18;10.80;61.70
4103;DHT22;2065;49.790;9.620;2022-11-15T05:36:07;10.90;61.40
4103;DHT22;2065;49.790;9.620;2022-11-15T05:38:56;10.90;61.50
4103;DHT22;2065;49.790;9.620;2022-11-15T05:41:44;10.80;61.90
4103;DHT22;2065;49.790;9.620;2022-11-15T05:44:31;10.50;62.80
4103;DHT22;2065;49.790;9.620;2022-11-15T05:47:19;10.70;62.70
4103;DHT22;2065;49.790;9.620;2022-11-15T05:50:07;10.80;62.00
4103;DHT22;2065;49.790;9.620;2022-11-15T05:52:54;10.90;61.70
4103;DHT22;2065;49.790;9.620;2022-11-15T05:55:42;11.00;61.50
4103;DHT22;2065;49.790;9.620;2022-11-15T05:58:28;11.10;61.10
4103;DHT22;2065;49.790;9.620;2022-11-15T06:01:13;11.10;60.60
4103;DHT22;2065;49.790;9.620;2022-11-15T06:03:59;10.60;61.70
4103;DHT22;2065;49.790;9.620;2022-11-15T06:06:45;10.40;63.30
4103;DHT22;2065;49.790;9.620;2022-11-15T06:09:31;10.50;63.20
4103;DHT22;2065;49.790;9.620;2022-11-15T06:12:17;10.70;62.30
4103;DHT22;2065;49.790;9.620;2022-11-15T06:15:03;10.90;61.60
4103;DHT22;2065;49.790;9.620;2022-11-15T06:17:49;10.90;61.20
4103;DHT22;2065;49.790;9.620;2022-11-15T06:20:35;10.70;62.00
4103;DHT22;2065;49.790;9.620;2022-11-15T06:23:20;10.60;61.90
4103;DHT22;2065;49.790;9.620;2022-11-15T06:26:06;10.70;62.00
4103;DHT22;2065;49.790;9.620;2022-11-15T06:28:53;10.80;61.50
4103;DHT22;2065;49.790;9.620;2022-11-15T06:31:39;10.90;60.90
4103;DHT22;2065;49.790;9.620;2022-11-15T06:34:24;10.80;60.30
4103;DHT22;2065;49.790;9.620;2022-11-15T06:37:10;10.90;60.80
4103;DHT22;2065;49.790;9.620;2022-11-15T06:39:55;11.00;60.20
4103;DHT22;2065;49.790;9.620;2022-11-15T06:42:41;10.90;60.20
4103;DHT22;2065;49.790;9.620;2022-11-15T06:45:28;10.80;61.10
4103;DHT22;2065;49.790;9.620;2022-11-15T06:48:14;10.90;61.20
4103;DHT22;2065;49.790;9.620;2022-11-15T06:51:01;11.00;61.30
4103;DHT22;2065;49.790;9.620;2022-11-15T06:53:47;10.80;60.30
4103;DHT22;2065;49.790;9.620;2022-11-15T06:56:33;10.80;61.30
4103;DHT22;2065;49.790;9.620;2022-11-15T06:59:19;10.80;61.80
4103;DHT22;2065;49.790;9.620;2022-11-15T07:02:10;10.80;61.40
4103;DHT22;2065;49.790;9.620;2022-11-15T07:04:57;10.90;61.80
4103;DHT22;2065;49.790;9.620;2022-11-15T07:07:42;11.00;61.50
4103;DHT22;2065;49.790;9.620;2022-11-15T07:10:29;11.10;61.40
4103;DHT22;2065;49.790;9.620;2022-11-15T07:13:15;11.00;61.90
4103;DHT22;2065;49.790;9.620;2022-11-15T07:16:01;11.10;61.90
4103;DHT22;2065;49.790;9.620;2022-11-15T07:18:48;11.20;61.40
4103;DHT22;2065;49.790;9.620;2022-11-15T07:21:34;11.00;61.70
4103;DHT22;2065;49.790;9.620;2022-11-15T07:24:20;11.20;61.60
4103;DHT22;2065;49.790;9.620;2022-11-15T07:27:05;11.10;61.20
4103;DHT22;2065;49.790;9.620;2022-11-15T07:29:51;11.10;61.30
4103;DHT22;2065;49.790;9.620;2022-11-15T07:32:37;11.00;62.00
4103;DHT22;2065;49.790;9.620;2022-11-15T07:35:24;10.60;62.70
4103;DHT22;2065;49.790;9.620;2022-11-15T07:38:10;10.50;63.50
4103;DHT22;2065;49.790;9.620;2022-11-15T07:40:57;10.80;63.00
4103;DHT22;2065;49.790;9.620;2022-11-15T07:43:42;10.90;61.80
4103;DHT22;2065;49.790;9.620;2022-11-15T07:46:29;10.80;62.60
4103;DHT22;2065;49.790;9.620;2022-11-15T07:49:14;10.70;62.50
4103;DHT22;2065;49.790;9.620;2022-11-15T07:52:01;10.80;62.10
4103;DHT22;2065;49.790;9.620;2022-11-15T07:54:46;10.90;62.50
4103;DHT22;2065;49.790;9.620;2022-11-15T07:57:32;10.90;62.50
4103;DHT22;2065;49.790;9.620;2022-11-15T08:00:18;11.00;62.30
4103;DHT22;2065;49.790;9.620;2022-11-15T08:03:05;11.20;61.60
4103;DHT22;2065;49.790;9.620;2022-11-15T08:05:51;11.10;61.40
4103;DHT22;2065;49.790;9.620;2022-11-15T08:08:38;11.20;61.40
4103;DHT22;2065;49.790;9.620;2022-11-15T08:11:24;11.30;61.20
4103;DHT22;2065;49.790;9.620;2022-11-15T08:14:09;11.00;61.90
4103;DHT22;2065;49.790;9.620;2022-11-15T08:16:55;10.90;63.00
4103;DHT22;2065;49.790;9.620;2022-11-15T08:19:40;11.10;62.80
4103;DHT22;2065;49.790;9.620;2022-11-15T08:22:26;11.00;62.90
4103;DHT22;2065;49.790;9.620;2022-11-15T08:25:13;11.10;62.80
4103;DHT22;2065;49.790;9.620;2022-11-15T08:28:01;11.30;62.50
4103;DHT22;2065;49.790;9.620;2022-11-15T08:30:47;11.50;62.20
4103;DHT22;2065;49.790;9.620;2022-11-15T08:33:33;11.40;61.90
4103;DHT22;2065;49.790;9.620;2022-11-15T08:36:20;11.10;63.10
4103;DHT22;2065;49.790;9.620;2022-11-15T08:39:06;11.20;63.20
4103;DHT22;2065;49.790;9.620;2022-11-15T08:41:55;11.30;62.80
4103;DHT22;2065;49.790;9.620;2022-11-15T08:44:41;11.20;63.20
4103;DHT22;2065;49.790;9.620;2022-11-15T08:47:27;10.90;64.10
4103;DHT22;2065;49.790;9.620;2022-11-15T08:50:13;10.60;65.00
4103;DHT22;2065;49.790;9.620;2022-11-15T08:53:05;10.30;66.10
4103;DHT22;2065;49.790;9.620;2022-11-15T08:55:50;10.70;65.70
4103;DHT22;2065;49.790;9.620;2022-11-15T08:58:38;10.90;64.80
4103;DHT22;2065;49.790;9.620;2022-11-15T09:01:23;11.10;64.70
4103;DHT22;2065;49.790;9.620;2022-11-15T09:04:09;11.40;64.10
4103;DHT22;2065;49.790;9.620;2022-11-15T09:06:55;11.60;63.20
4103;DHT22;2065;49.790;9.620;2022-11-15T09:09:40;11.60;62.50
4103;DHT22;2065;49.790;9.620;2022-11-15T09:12:26;11.60;62.50
4103;DHT22;2065;49.790;9.620;2022-11-15T09:15:13;11.50;62.70
4103;DHT22;2065;49.790;9.620;2022-11-15T09:17:59;11.00;64.30
4103;DHT22;2065;49.790;9.620;2022-11-15T09:20:45;11.10;64.60
4103;DHT22;2065;49.790;9.620;2022-11-15T09:23:31;11.40;63.80
4103;DHT22;2065;49.790;9.620;2022-11-15T09:26:16;11.60;63.40
4103;DHT22;2065;49.790;9.620;2022-11-15T09:29:02;11.80;62.90
4103;DHT22;2065;49.790;9.620;2022-11-15T09:31:51;11.70;62.90
4103;DHT22;2065;49.790;9.620;2022-11-15T09:34:37;11.70;63.50
4103;DHT22;2065;49.790;9.620;2022-11-15T09:37:23;11.80;64.10
4103;DHT22;2065;49.790;9.620;2022-11-15T09:40:11;12.00;62.80
4103;DHT22;2065;49.790;9.620;2022-11-15T09:43:24;11.90;63.10
4103;DHT22;2065;49.790;9.620;2022-11-15T09:46:16;12.10;62.80
4103;DHT22;2065;49.790;9.620;2022-11-15T09:49:13;12.20;62.80
4103;DHT22;2065;49.790;9.620;2022-11-15T09:52:06;12.30;62.60
4103;DHT22;2065;49.790;9.620;2022-11-15T09:54:36;12.50;62.50
4103;DHT22;2065;49.790;9.620;2022-11-15T09:57:06;12.60;62.40
4103;DHT22;2065;49.790;9.620;2022-11-15T09:59:48;12.70;62.10
4103;DHT22;2065;49.790;9.620;2022-11-15T10:02:28;12.80;62.40
4103;DHT22;2065;49.790;9.620;2022-11-15T10:04:59;12.90;62.10
4103;DHT22;2065;49.790;9.620;2022-11-15T10:07:30;12.90;61.70
4103;DHT22;2065;49.790;9.620;2022-11-15T10:10:02;12.90;61.60
4103;DHT22;2065;49.790;9.620;2022-11-15T10:12:31;12.80;62.00
4103;DHT22;2065;49.790;9.620;2022-11-15T10:15:02;12.60;63.10
4103;DHT22;2065;49.790;9.620;2022-11-15T10:18:07;12.50;63.80
4103;DHT22;2065;49.790;9.620;2022-11-15T10:20:44;12.70;63.50
4103;DHT22;2065;49.790;9.620;2022-11-15T10:23:15;12.70;63.40
4103;DHT22;2065;49.790;9.620;2022-11-15T10:25:43;12.90;63.10
4103;DHT22;2065;49.790;9.620;2022-11-15T10:28:15;13.10;63.00
4103;DHT22;2065;49.790;9.620;2022-11-15T10:30:44;13.20;62.60
4103;DHT22;2065;49.790;9.620;2022-11-15T10:33:23;13.30;61.70
4103;DHT22;2065;49.790;9.620;2022-11-15T10:36:15;13.20;62.20
4103;DHT22;2065;49.790;9.620;2022-11-15T10:38:54;12.90;63.10
4103;DHT22;2065;49.790;9.620;2022-11-15T10:41:30;12.90;63.40
4103;DHT22;2065;49.790;9.620;2022-11-15T10:44:28;12.90;63.50
4103;DHT22;2065;49.790;9.620;2022-11-15T10:50:05;13.30;62.70
4103;DHT22;2065;49.790;9.620;2022-11-15T10:52:36;13.40;62.40
4103;DHT22;2065;49.790;9.620;2022-11-15T10:55:24;13.50;62.40
4103;DHT22;2065;49.790;9.620;2022-11-15T10:57:52;13.50;62.50
4103;DHT22;2065;49.790;9.620;2022-11-15T11:00:29;13.40;63.10
4103;DHT22;2065;49.790;9.620;2022-11-15T11:02:59;13.30;63.50
4103;DHT22;2065;49.790;9.620;2022-11-15T11:05:29;13.40;63.10
4103;DHT22;2065;49.790;9.620;2022-11-15T11:08:00;13.50;62.80
4103;DHT22;2065;49.790;9.620;2022-11-15T11:10:28;13.70;62.50
4103;DHT22;2065;49.790;9.620;2022-11-15T11:13:04;13.80;62.30
4103;DHT22;2065;49.790;9.620;2022-11-15T11:15:39;13.50;61.60
4103;DHT22;2065;49.790;9.620;2022-11-15T11:18:17;13.40;62.80
4103;DHT22;2065;49.790;9.620;2022-11-15T11:20:51;13.80;62.40
4103;DHT22;2065;49.790;9.620;2022-11-15T11:23:32;14.10;62.20
4103;DHT22;2065;49.790;9.620;2022-11-15T11:26:08;14.30;61.90
4103;DHT22;2065;49.790;9.620;2022-11-15T11:28:44;14.40;63.40
4103;DHT22;2065;49.790;9.620;2022-11-15T11:31:22;14.50;62.70
4103;DHT22;2065;49.790;9.620;2022-11-15T11:34:00;14.40;61.80
4103;DHT22;2065;49.790;9.620;2022-11-15T11:36:37;14.30;61.80
4103;DHT22;2065;49.790;9.620;2022-11-15T11:39:19;14.20;61.60
4103;DHT22;2065;49.790;9.620;2022-11-15T11:41:59;14.20;61.90
4103;DHT22;2065;49.790;9.620;2022-11-15T11:44:33;14.30;61.90
4103;DHT22;2065;49.790;9.620;2022-11-15T11:47:03;14.20;62.00
4103;DHT22;2065;49.790;9.620;2022-11-15T11:49:39;14.20;62.00
4103;DHT22;2065;49.790;9.620;2022-11-15T11:52:11;14.30;62.00
4103;DHT22;2065;49.790;9.620;2022-11-15T11:54:46;14.30;61.90
4103;DHT22;2065;49.790;9.620;2022-11-15T11:57:21;14.40;61.20
4103;DHT22;2065;49.790;9.620;2022-11-15T11:59:53;14.40;61.30
4103;DHT22;2065;49.790;9.620;2022-11-15T12:02:28;14.40;61.30
4103;DHT22;2065;49.790;9.620;2022-11-15T12:05:03;14.60;62.30
4103;DHT22;2065;49.790;9.620;2022-11-15T12:07:33;14.70;61.20
4103;DHT22;2065;49.790;9.620;2022-11-15T12:10:05;14.80;60.90
4103;DHT22;2065;49.790;9.620;2022-11-15T12:12:47;14.90;61.00
4103;DHT22;2065;49.790;9.620;2022-11-15T12:15:18;15.00;60.50
4103;DHT22;2065;49.790;9.620;2022-11-15T12:17:47;15.20;60.00
4103;DHT22;2065;49.790;9.620;2022-11-15T12:20:17;15.20;59.70
4103;DHT22;2065;49.790;9.620;2022-11-15T12:22:49;15.20;59.70
4103;DHT22;2065;49.790;9.620;2022-11-15T12:25:21;15.10;59.80
4103;DHT22;2065;49.790;9.620;2022-11-15T12:27:52;15.20;60.20
4103;DHT22;2065;49.790;9.620;2022-11-15T12:30:22;15.20;60.10
4103;DHT22;2065;49.790;9.620;2022-11-15T12:32:51;15.20;59.90
4103;DHT22;2065;49.790;9.620;2022-11-15T12:35:27;15.20;60.60
4103;DHT22;2065;49.790;9.620;2022-11-15T12:37:56;15.20;60.40
4103;DHT22;2065;49.790;9.620;2022-11-15T12:40:36;15.20;60.80
4103;DHT22;2065;49.790;9.620;2022-11-15T12:46:12;15.20;60.00
4103;DHT22;2065;49.790;9.620;2022-11-15T12:48:58;15.30;59.90
4103;DHT22;2065;49.790;9.620;2022-11-15T12:54:56;15.50;59.80
4103;DHT22;2065;49.790;9.620;2022-11-15T12:57:44;15.40;59.90
4103;DHT22;2065;49.790;9.620;2022-11-15T13:00:45;15.40;60.20
4103;DHT22;2065;49.790;9.620;2022-11-15T13:03:21;15.40;60.50
4103;DHT22;2065;49.790;9.620;2022-11-15T13:06:03;15.30;60.50
4103;DHT22;2065;49.790;9.620;2022-11-15T13:08:42;15.40;60.70
4103;DHT22;2065;49.790;9.620;2022-11-15T13:14:43;15.40;61.00
4103;DHT22;2065;49.790;9.620;2022-11-15T13:17:32;15.50;60.80
4103;DHT22;2065;49.790;9.620;2022-11-15T13:20:14;15.70;60.60
4103;DHT22;2065;49.790;9.620;2022-11-15T13:22:45;15.70;60.20
4103;DHT22;2065;49.790;9.620;2022-11-15T13:25:56;15.80;60.30
4103;DHT22;2065;49.790;9.620;2022-11-15T13:28:31;15.90;60.30
4103;DHT22;2065;49.790;9.620;2022-11-15T13:31:02;16.10;60.20
4103;DHT22;2065;49.790;9.620;2022-11-15T13:33:32;16.20;59.60
4103;DHT22;2065;49.790;9.620;2022-11-15T13:36:03;16.20;59.40
4103;DHT22;2065;49.790;9.620;2022-11-15T13:38:32;16.20;59.40
4103;DHT22;2065;49.790;9.620;2022-11-15T13:41:13;16.00;59.60
4103;DHT22;2065;49.790;9.620;2022-11-15T13:43:40;15.90;59.80
4103;DHT22;2065;49.790;9.620;2022-11-15T13:46:12;15.90;60.20
4103;DHT22;2065;49.790;9.620;2022-11-15T13:48:40;16.00;60.30
4103;DHT22;2065;49.790;9.620;2022-11-15T13:51:13;16.10;59.90
4103;DHT22;2065;49.790;9.620;2022-11-15T13:53:45;16.10;59.80
4103;DHT22;2065;49.790;9.620;2022-11-15T13:56:13;16.20;59.70
4103;DHT22;2065;49.790;9.620;2022-11-15T13:58:41;16.30;59.70
4103;DHT22;2065;49.790;9.620;2022-11-15T14:01:16;16.30;59.60
4103;DHT22;2065;49.790;9.620;2022-11-15T14:03:54;16.40;59.50
4103;DHT22;2065;49.790;9.620;2022-11-15T14:06:24;16.30;59.00
4103;DHT22;2065;49.790;9.620;2022-11-15T14:09:02;16.20;59.30
4103;DHT22;2065;49.790;9.620;2022-11-15T14:11:30;16.30;59.50
4103;DHT22;2065;49.790;9.620;2022-11-15T14:14:10;16.30;59.40
4103;DHT22;2065;49.790;9.620;2022-11-15T14:16:42;16.40;59.50
4103;DHT22;2065;49.790;9.620;2022-11-15T14:19:11;16.40;59.60
4103;DHT22;2065;49.790;9.620;2022-11-15T14:22:15;16.40;59.60
4103;DHT22;2065;49.790;9.620;2022-11-15T14:24:44;16.40;59.70
4103;DHT22;2065;49.790;9.620;2022-11-15T14:27:29;16.30;59.70
4103;DHT22;2065;49.790;9.620;2022-11-15T14:29:56;16.30;59.80
4103;DHT22;2065;49.790;9.620;2022-11-15T14:32:26;16.20;59.90
4103;DHT22;2065;49.790;9.620;2022-11-15T14:34:55;16.20;60.10
4103;DHT22;2065;49.790;9.620;2022-11-15T14:37:24;16.20;60.10
4103;DHT22;2065;49.790;9.620;2022-11-15T14:39:52;16.20;60.10
4103;DHT22;2065;49.790;9.620;2022-11-15T14:42:21;16.30;60.20
4103;DHT22;2065;49.790;9.620;2022-11-15T14:44:48;16.30;60.20
4103;DHT22;2065;49.790;9.620;2022-11-15T14:47:15;16.30;60.20
4103;DHT22;2065;49.790;9.620;2022-11-15T14:49:44;16.30;60.50
4103;DHT22;2065;49.790;9.620;2022-11-15T14:52:23;16.00;60.80
4103;DHT22;2065;49.790;9.620;2022-11-15T14:54:50;15.90;61.00
4103;DHT22;2065;49.790;9.620;2022-11-15T14:57:17;15.90;61.00
4103;DHT22;2065;49.790;9.620;2022-11-15T14:59:44;16.00;61.00
4103;DHT22;2065;49.790;9.620;2022-11-15T15:02:16;16.10;61.00
4103;DHT22;2065;49.790;9.620;2022-11-15T15:04:46;16.00;60.70
4103;DHT22;2065;49.790;9.620;2022-11-15T15:07:13;16.10;60.70
4103;DHT22;2065;49.790;9.620;2022-11-15T15:09:41;16.00;60.60
4103;DHT22;2065;49.790;9.620;2022-11-15T15:12:20;16.00;60.50
4103;DHT22;2065;49.790;9.620;2022-11-15T15:14:48;15.90;60.60
4103;DHT22;2065;49.790;9.620;2022-11-15T15:17:16;15.80;60.80
4103;DHT22;2065;49.790;9.620;2022-11-15T15:19:43;15.80;61.10
4103;DHT22;2065;49.790;9.620;2022-11-15T15:22:14;15.90;61.20
4103;DHT22;2065;49.790;9.620;2022-11-15T15:24:41;15.90;61.10
4103;DHT22;2065;49.790;9.620;2022-11-15T15:27:08;15.90;60.90
4103;DHT22;2065;49.790;9.620;2022-11-15T15:29:35;15.90;60.80
4103;DHT22;2065;49.790;9.620;2022-11-15T15:32:02;15.80;60.90
4103;DHT22;2065;49.790;9.620;2022-11-15T15:34:30;15.80;61.10
4103;DHT22;2065;49.790;9.620;2022-11-15T15:37:18;15.80;61.20
4103;DHT22;2065;49.790;9.620;2022-11-15T15:39:48;15.70;61.20
4103;DHT22;2065;49.790;9.620;2022-11-15T15:42:15;15.70;61.30
4103;DHT22;2065;49.790;9.620;2022-11-15T15:44:42;15.60;61.50
4103;DHT22;2065;49.790;9.620;2022-11-15T15:47:11;15.60;61.60
4103;DHT22;2065;49.790;9.620;2022-11-15T15:49:38;15.40;62.10
4103;DHT22;2065;49.790;9.620;2022-11-15T15:52:05;15.30;62.00
4103;DHT22;2065;49.790;9.620;2022-11-15T15:54:33;15.30;62.50
4103;DHT22;2065;49.790;9.620;2022-11-15T15:57:00;15.20;62.60
4103;DHT22;2065;49.790;9.620;2022-11-15T15:59:27;15.20;62.50
4103;DHT22;2065;49.790;9.620;2022-11-15T16:01:54;15.30;62.20
4103;DHT22;2065;49.790;9.620;2022-11-15T16:04:21;15.40;62.00
4103;DHT22;2065;49.790;9.620;2022-11-15T16:06:49;15.40;61.90
4103;DHT22;2065;49.790;9.620;2022-11-15T16:09:19;15.40;62.10
4103;DHT22;2065;49.790;9.620;2022-11-15T16:12:08;15.40;62.10
4103;DHT22;2065;49.790;9.620;2022-11-15T16:14:35;15.40;62.20
4103;DHT22;2065;49.790;9.620;2022-11-15T16:17:02;15.40;62.10
4103;DHT22;2065;49.790;9.620;2022-11-15T16:19:30;15.40;62.00
4103;DHT22;2065;49.790;9.620;2022-11-15T16:21:57;15.40;61.90
4103;DHT22;2065;49.790;9.620;2022-11-15T16:24:24;15.40;61.90
4103;DHT22;2065;49.790;9.620;2022-11-15T16:26:52;15.40;62.00
4103;DHT22;2065;49.790;9.620;2022-11-15T16:29:20;15.40;62.00
4103;DHT22;2065;49.790;9.620;2022-11-15T16:31:47;15.10;62.50
4103;DHT22;2065;49.790;9.620;2022-11-15T16:34:14;15.10;63.00
4103;DHT22;2065;49.790;9.620;2022-11-15T16:36:41;15.20;62.80
4103;DHT22;2065;49.790;9.620;2022-11-15T16:39:12;15.30;62.40
4103;DHT22;2065;49.790;9.620;2022-11-15T16:41:41;15.30;62.20
4103;DHT22;2065;49.790;9.620;2022-11-15T16:44:08;15.40;62.00
4103;DHT22;2065;49.790;9.620;2022-11-15T16:46:37;15.40;61.80
4103;DHT22;2065;49.790;9.620;2022-11-15T16:49:11;15.40;61.60
4103;DHT22;2065;49.790;9.620;2022-11-15T16:51:39;15.40;61.50
4103;DHT22;2065;49.790;9.620;2022-11-15T16:54:07;15.50;61.60
4103;DHT22;2065;49.790;9.620;2022-11-15T16:56:34;15.50;61.50
4103;DHT22;2065;49.790;9.620;2022-11-15T16:59:01;15.50;61.60
4103;DHT22;2065;49.790;9.620;2022-11-15T17:01:30;15.40;61.30
4103;DHT22;2065;49.790;9.620;2022-11-15T17:03:58;15.30;61.70
4103;DHT22;2065;49.790;9.620;2022-11-15T17:06:37;15.10;62.60
4103;DHT22;2065;49.790;9.620;2022-11-15T17:09:04;15.10;62.70
4103;DHT22;2065;49.790;9.620;2022-11-15T17:11:32;15.00;62.90
4103;DHT22;2065;49.790;9.620;2022-11-15T17:13:59;15.10;63.00
4103;DHT22;2065;49.790;9.620;2022-11-15T17:16:26;15.10;62.70
4103;DHT22;2065;49.790;9.620;2022-11-15T17:18:53;15.20;62.70
4103;DHT22;2065;49.790;9.620;2022-11-15T17:21:22;15.20;62.50
4103;DHT22;2065;49.790;9.620;2022-11-15T17:23:51;15.30;62.40
4103;DHT22;2065;49.790;9.620;2022-11-15T17:26:19;15.30;62.10
4103;DHT22;2065;49.790;9.620;2022-11-15T17:28:46;15.30;61.90
4103;DHT22;2065;49.790;9.620;2022-11-15T17:31:13;15.40;61.90
4103;DHT22;2065;49.790;9.620;2022-11-15T17:33:41;15.40;61.80
4103;DHT22;2065;49.790;9.620;2022-11-15T17:36:10;15.40;61.70
4103;DHT22;2065;49.790;9.620;2022-11-15T17:38:41;15.30;61.40
4103;DHT22;2065;49.790;9.620;2022-11-15T17:41:11;15.20;61.40
4103;DHT22;2065;49.790;9.620;2022-11-15T17:43:39;15.20;61.90
4103;DHT22;2065;49.790;9.620;2022-11-15T17:46:10;15.10;62.00
4103;DHT22;2065;49.790;9.620;2022-11-15T17:48:38;15.00;62.30